Time;durP1;ratioP1;P1;durP2;ratioP2;P2;SDS_P1;SDS_P2;PMS_P1;PMS_P2;Temp;Humidity;BMP_temperature;BMP_pressure;BME280_temperature;BME280_humidity;BME280_pressure;Samples;Min_cycle;Max_cycle;Signal;HPM_P1;HPM_P2
2022/10/30 00:00:57;;;;;;;76.82;54.03;;;19.70;83.60;;;;;;4935051;28;93026;-53
2022/10/30 00:03:23;;;;;;;78.43;54.13;;;19.60;83.60;;;;;;4943503;28;89979;-49
2022/10/30 00:05:50;;;;;;;76.40;54.22;;;19.60;83.60;;;;;;4951644;28;91133;-49
2022/10/30 00:08:19;;;;;;;77.78;53.90;;;19.60;83.50;;;;;;4941536;28;90221;-47
2022/10/30 00:10:46;;;;;;;76.75;54.53;;;19.60;84.30;;;;;;4947969;28;91971;-48
2022/10/30 00:13:12;;;;;;;77.72;54.55;;;19.60;83.50;;;;;;4943471;28;94104;-49
2022/10/30 00:15:38;;;;;;;76.82;54.17;;;19.60;83.50;;;;;;4948845;28;90272;-55
2022/10/30 00:18:04;;;;;;;80.40;54.35;;;19.60;83.50;;;;;;4935317;28;90412;-47
2022/10/30 00:20:30;;;;;;;76.32;54.03;;;19.60;83.50;;;;;;4944171;28;91626;-49
2022/10/30 00:22:56;;;;;;;76.65;53.67;;;19.60;83.50;;;;;;4947523;28;94990;-48
2022/10/30 00:25:22;;;;;;;77.85;53.83;;;19.60;83.50;;;;;;4952656;28;90192;-51
2022/10/30 00:27:47;;;;;;;76.60;54.30;;;19.60;83.40;;;;;;4952119;28;90971;-49
2022/10/30 00:30:14;;;;;;;76.50;53.80;;;19.60;83.40;;;;;;4947648;28;90946;-51
2022/10/30 00:32:41;;;;;;;78.22;54.03;;;19.60;83.30;;;;;;4950285;28;91910;-53
2022/10/30 00:35:08;;;;;;;75.50;53.85;;;19.60;83.30;;;;;;4947972;28;90323;-50
2022/10/30 00:37:34;;;;;;;77.45;54.08;;;19.60;83.40;;;;;;4943768;28;89470;-51
2022/10/30 00:39:59;;;;;;;77.30;53.83;;;19.60;83.30;;;;;;4941916;28;90767;-52
2022/10/30 00:42:29;;;;;;;76.63;54.25;;;19.60;83.40;;;;;;4952064;28;90076;-51
2022/10/30 00:44:55;;;;;;;77.93;54.08;;;19.60;83.20;;;;;;4949668;28;90526;-53
2022/10/30 00:47:34;;;;;;;76.95;53.85;;;19.50;83.20;;;;;;4943002;28;94094;-52
2022/10/30 00:50:10;;;;;;;76.78;54.30;;;19.50;83.30;;;;;;4942682;28;91415;-48
2022/10/30 00:52:42;;;;;;;76.65;54.22;;;19.60;83.20;;;;;;4953750;28;90090;-48
2022/10/30 00:55:12;;;;;;;75.75;54.08;;;19.50;83.20;;;;;;4958731;28;96683;-50
2022/10/30 00:57:39;;;;;;;75.85;54.22;;;19.50;83.10;;;;;;4954753;28;92920;-53
2022/10/30 01:00:06;;;;;;;77.60;53.97;;;19.50;83.00;;;;;;4947916;28;89844;-47
2022/10/30 01:02:32;;;;;;;76.20;54.10;;;19.50;83.10;;;;;;4945559;28;90513;-52
2022/10/30 01:04:59;;;;;;;77.15;54.30;;;19.50;83.10;;;;;;4945581;28;90085;-52
2022/10/30 01:07:25;;;;;;;77.20;54.15;;;19.50;83.10;;;;;;4950203;28;95304;-48
2022/10/30 01:09:50;;;;;;;78.25;53.92;;;19.50;83.10;;;;;;4942699;28;92327;-48
2022/10/30 01:12:16;;;;;;;76.40;53.83;;;19.50;83.00;;;;;;4950303;28;90227;-52
2022/10/30 01:14:48;;;;;;;76.63;53.55;;;19.50;83.00;;;;;;4957563;28;91297;-52
2022/10/30 01:17:47;;;;;;;75.22;53.85;;;19.50;82.90;;;;;;4947852;28;90574;-49
2022/10/30 01:20:27;;;;;;;76.88;53.97;;;19.50;82.90;;;;;;4955548;28;91295;-51
2022/10/30 01:23:19;;;;;;;76.40;53.72;;;19.50;82.90;;;;;;4946852;28;90061;-53
2022/10/30 01:25:51;;;;;;;75.30;53.67;;;19.50;83.00;;;;;;4949413;28;92573;-51
2022/10/30 01:28:16;;;;;;;;;;;19.40;82.70;;;;;;4954299;28;90095;-51
2022/10/30 01:31:00;;;;;;;75.60;53.60;;;19.40;82.80;;;;;;4948901;28;89557;-51
2022/10/30 01:33:35;;;;;;;76.15;53.20;;;19.40;82.80;;;;;;4947007;28;89963;-52
2022/10/30 01:36:33;;;;;;;74.75;53.47;;;19.40;82.80;;;;;;4945133;28;90248;-51
2022/10/30 01:39:04;;;;;;;75.72;53.60;;;19.40;82.80;;;;;;4949876;28;89959;-48
2022/10/30 01:41:29;;;;;;;76.38;53.55;;;19.40;82.80;;;;;;4956848;28;90538;-48
2022/10/30 01:44:00;;;;;;;77.93;53.95;;;19.40;82.80;;;;;;4952670;28;95305;-49
2022/10/30 01:46:29;;;;;;;75.20;53.55;;;19.40;82.70;;;;;;4954264;28;94260;-52
2022/10/30 01:49:07;;;;;;;76.18;53.55;;;19.40;82.70;;;;;;4945211;28;95174;-51
2022/10/30 01:51:53;;;;;;;77.05;53.67;;;19.40;82.70;;;;;;4948962;28;89961;-49
2022/10/30 01:54:41;;;;;;;75.93;53.72;;;19.40;82.70;;;;;;4945492;28;93622;-49
2022/10/30 01:57:25;;;;;;;76.72;53.65;;;19.40;82.60;;;;;;4945082;28;92248;-49
2022/10/30 01:59:58;;;;;;;76.63;54.60;;;19.40;82.70;;;;;;4937738;28;90751;-52
2022/10/30 02:02:24;;;;;;;75.30;53.53;;;19.40;82.50;;;;;;4950710;28;90794;-51
2022/10/30 02:04:51;;;;;;;75.00;53.47;;;19.40;82.50;;;;;;4941627;28;89511;-52
2022/10/30 02:07:17;;;;;;;77.15;53.42;;;19.40;82.60;;;;;;4947791;28;93176;-52
2022/10/30 02:09:43;;;;;;;75.35;53.72;;;19.40;82.50;;;;;;4940881;28;91416;-52
2022/10/30 02:12:09;;;;;;;77.50;54.05;;;19.40;82.50;;;;;;4947714;28;92998;-53
2022/10/30 02:14:41;;;;;;;77.80;53.38;;;19.30;82.50;;;;;;4949224;28;90185;-48
2022/10/30 02:17:10;;;;;;;75.55;53.80;;;19.40;82.60;;;;;;4951326;28;91453;-53
2022/10/30 02:19:36;;;;;;;76.18;53.83;;;19.30;82.50;;;;;;4942255;28;92364;-52
2022/10/30 02:22:02;;;;;;;74.90;53.47;;;19.30;82.50;;;;;;4945623;28;92317;-51
2022/10/30 02:24:29;;;;;;;76.10;53.80;;;19.30;82.40;;;;;;4953279;28;90695;-51
2022/10/30 02:26:55;;;;;;;73.88;52.90;;;19.30;82.40;;;;;;4940109;28;90966;-51
2022/10/30 02:29:20;;;;;;;74.35;53.28;;;19.30;82.40;;;;;;4943415;28;90626;-48
2022/10/30 02:31:46;;;;;;;76.05;53.60;;;19.30;82.50;;;;;;4956719;28;92286;-48
2022/10/30 02:34:12;;;;;;;74.53;53.40;;;19.30;82.30;;;;;;4948128;28;90146;-52
2022/10/30 02:36:38;;;;;;;74.82;53.50;;;19.30;82.40;;;;;;4953994;28;96872;-51
2022/10/30 02:39:05;;;;;;;75.78;53.70;;;19.30;82.30;;;;;;4947601;28;91833;-55
2022/10/30 02:41:30;;;;;;;78.18;53.40;;;19.30;82.40;;;;;;4946441;28;90003;-48
2022/10/30 02:43:56;;;;;;;75.32;53.97;;;19.30;82.40;;;;;;4945827;28;94895;-52
2022/10/30 02:46:22;;;;;;;75.00;53.65;;;19.30;82.40;;;;;;4945835;28;93482;-49
2022/10/30 02:48:47;;;;;;;74.53;53.05;;;19.30;82.30;;;;;;4947084;28;90332;-48
2022/10/30 02:51:13;;;;;;;75.93;53.35;;;19.30;82.30;;;;;;4940681;28;91810;-52
2022/10/30 02:53:39;;;;;;;75.22;53.47;;;19.30;82.30;;;;;;4949201;28;89670;-51
2022/10/30 02:56:10;;;;;;;75.00;53.53;;;19.20;82.20;;;;;;4939544;28;90001;-52
2022/10/30 02:58:36;;;;;;;75.25;53.53;;;19.20;82.20;;;;;;4943133;28;90874;-51
2022/10/30 03:01:09;;;;;;;75.25;53.22;;;19.20;82.20;;;;;;4936883;28;92704;-51
2022/10/30 03:03:35;;;;;;;77.28;53.33;;;19.30;82.30;;;;;;4939175;28;95055;-52
2022/10/30 03:06:03;;;;;;;74.60;53.28;;;19.20;82.10;;;;;;4943807;28;93044;-53
2022/10/30 03:08:29;;;;;;;75.25;53.50;;;19.20;82.20;;;;;;4946007;28;90324;-51
2022/10/30 03:11:00;;;;;;;77.07;53.25;;;19.20;82.10;;;;;;4939742;28;92818;-50
2022/10/30 03:13:28;;;;;;;76.60;53.70;;;19.20;82.10;;;;;;4949316;28;90701;-53
2022/10/30 03:16:06;;;;;;;74.95;53.75;;;19.20;82.20;;;;;;4929495;28;91318;-52
2022/10/30 03:18:32;;;;;;;74.43;53.30;;;19.20;82.80;;;;;;4941850;28;90192;-53
2022/10/30 03:21:03;;;;;;;74.70;53.42;;;19.20;82.10;;;;;;4933380;28;95427;-52
2022/10/30 03:23:30;;;;;;;75.68;53.63;;;19.20;82.10;;;;;;4942142;28;90115;-52
2022/10/30 03:25:57;;;;;;;75.15;53.20;;;19.20;82.10;;;;;;4933424;28;93509;-53
2022/10/30 03:28:25;;;;;;;76.50;53.60;;;19.20;82.10;;;;;;4944324;28;90927;-49
2022/10/30 03:30:56;;;;;;;74.82;53.33;;;19.20;82.10;;;;;;4937255;28;91600;-52
2022/10/30 03:33:22;;;;;;;74.20;53.13;;;19.20;82.10;;;;;;4941593;28;92511;-48
2022/10/30 03:35:48;;;;;;;75.13;53.58;;;19.20;82.10;;;;;;4936281;28;90585;-52
2022/10/30 03:38:13;;;;;;;73.95;52.97;;;19.20;82.10;;;;;;4943194;28;93665;-50
2022/10/30 03:40:39;;;;;;;75.07;53.53;;;19.20;82.10;;;;;;4941999;28;91031;-52
2022/10/30 03:43:05;;;;;;;76.28;53.10;;;19.20;82.10;;;;;;4934008;28;90004;-53
2022/10/30 03:45:32;;;;;;;75.38;53.05;;;19.20;82.00;;;;;;4938481;28;92328;-51
2022/10/30 03:48:02;;;;;;;75.03;53.00;;;19.20;82.00;;;;;;4948025;28;91472;-49
2022/10/30 03:50:28;;;;;;;75.97;53.27;;;19.10;81.90;;;;;;4952095;28;92312;-51
2022/10/30 03:52:55;;;;;;;75.00;53.10;;;19.10;81.90;;;;;;4944936;28;90115;-51
2022/10/30 03:55:21;;;;;;;74.82;53.38;;;19.10;81.90;;;;;;4948224;28;90872;-53
2022/10/30 03:57:46;;;;;;;75.75;53.40;;;19.10;81.90;;;;;;4953904;28;91194;-52
2022/10/30 04:00:13;;;;;;;73.88;53.28;;;19.10;81.90;;;;;;4941022;28;90741;-52
2022/10/30 04:02:43;;;;;;;75.90;52.85;;;19.10;81.90;;;;;;4949809;28;92520;-53
2022/10/30 04:05:08;;;;;;;74.78;53.35;;;19.10;81.90;;;;;;4955413;28;91232;-52
2022/10/30 04:07:34;;;;;;;74.88;53.22;;;19.10;81.80;;;;;;4952126;28;91101;-52
2022/10/30 04:10:00;;;;;;;77.22;53.55;;;19.10;81.90;;;;;;4950070;28;90255;-53
2022/10/30 04:12:25;;;;;;;77.85;53.13;;;19.10;81.80;;;;;;4946965;28;90107;-54
2022/10/30 04:14:52;;;;;;;74.22;52.95;;;19.10;81.80;;;;;;4956895;28;91284;-52
2022/10/30 04:17:18;;;;;;;74.70;53.17;;;19.10;81.70;;;;;;4945630;28;90900;-52
2022/10/30 04:19:43;;;;;;;74.25;52.78;;;19.10;81.80;;;;;;4951762;28;89947;-53
2022/10/30 04:22:09;;;;;;;74.60;53.38;;;19.10;81.80;;;;;;4940944;28;90678;-52
2022/10/30 04:24:35;;;;;;;73.95;52.95;;;19.10;81.80;;;;;;4948412;28;90056;-51
2022/10/30 04:27:00;;;;;;;75.63;53.35;;;19.10;81.80;;;;;;4948035;28;90965;-49
2022/10/30 04:29:26;;;;;;;74.28;53.47;;;19.10;81.80;;;;;;4957933;28;90013;-52
2022/10/30 04:31:51;;;;;;;78.50;53.90;;;19.10;81.80;;;;;;4953710;28;89153;-51
2022/10/30 04:34:17;;;;;;;74.47;53.33;;;19.00;81.70;;;;;;4953570;28;90318;-48
2022/10/30 04:36:43;;;;;;;76.38;53.30;;;19.00;81.70;;;;;;4948863;28;92478;-51
2022/10/30 04:39:09;;;;;;;75.30;53.13;;;19.00;81.70;;;;;;4952338;28;91808;-48
2022/10/30 04:41:34;;;;;;;74.60;53.35;;;19.00;81.60;;;;;;4947311;28;90029;-50
2022/10/30 04:44:00;;;;;;;76.75;53.47;;;19.00;81.70;;;;;;4952065;28;90403;-51
2022/10/30 04:46:25;;;;;;;73.97;52.85;;;19.00;81.70;;;;;;4960389;28;90000;-50
2022/10/30 04:48:52;;;;;;;75.55;53.10;;;19.00;81.60;;;;;;4949363;28;89801;-49
2022/10/30 04:51:17;;;;;;;74.88;52.90;;;19.00;81.70;;;;;;4943415;28;90854;-53
2022/10/30 04:53:43;;;;;;;74.82;53.03;;;19.00;81.70;;;;;;4948666;28;95235;-55
2022/10/30 04:56:09;;;;;;;76.05;53.40;;;19.00;81.70;;;;;;4950755;28;90142;-49
2022/10/30 04:58:35;;;;;;;76.63;53.28;;;19.00;81.60;;;;;;4952318;28;90055;-48
2022/10/30 05:01:02;;;;;;;75.93;53.75;;;19.00;81.70;;;;;;4946924;28;90294;-50
2022/10/30 05:03:28;;;;;;;75.32;52.90;;;19.00;81.60;;;;;;4949348;28;92320;-52
2022/10/30 05:06:01;;;;;;;74.43;52.92;;;19.00;81.60;;;;;;4953476;28;90159;-50
2022/10/30 05:08:28;;;;;;;76.13;53.13;;;19.00;81.70;;;;;;4943802;28;91924;-51
2022/10/30 05:10:54;;;;;;;75.88;52.80;;;19.00;81.50;;;;;;4947478;28;95066;-48
2022/10/30 05:13:20;;;;;;;75.18;53.33;;;19.00;81.70;;;;;;4939043;28;95052;-51
2022/10/30 05:15:45;;;;;;;74.20;52.92;;;19.00;81.60;;;;;;4949318;28;90302;-53
2022/10/30 05:18:11;;;;;;;74.65;53.05;;;19.00;81.60;;;;;;4947999;28;90173;-53
2022/10/30 05:20:37;;;;;;;73.82;52.67;;;19.00;81.50;;;;;;4947714;28;89206;-51
2022/10/30 05:23:02;;;;;;;73.53;52.65;;;19.00;81.60;;;;;;4944904;28;90764;-50
2022/10/30 05:25:28;;;;;;;75.72;53.03;;;18.90;81.50;;;;;;4957676;28;91154;-50
2022/10/30 05:28:02;;;;;;;73.90;53.03;;;18.90;81.60;;;;;;4946070;28;91072;-50
2022/10/30 05:30:32;;;;;;;73.93;53.08;;;18.90;81.60;;;;;;4947852;28;95031;-50
2022/10/30 05:33:02;;;;;;;75.32;52.85;;;18.90;81.60;;;;;;4945370;28;90242;-51
2022/10/30 05:35:31;;;;;;;75.13;52.97;;;18.90;81.60;;;;;;4944714;28;92622;-52
2022/10/30 05:37:58;;;;;;;74.90;52.95;;;18.90;81.50;;;;;;4935130;28;90954;-52
2022/10/30 05:40:24;;;;;;;74.22;52.92;;;18.90;81.50;;;;;;4951300;28;90783;-52
2022/10/30 05:42:50;;;;;;;75.22;52.97;;;18.90;81.50;;;;;;4953253;28;90636;-50
2022/10/30 05:45:16;;;;;;;75.45;53.17;;;18.90;81.50;;;;;;4945643;28;92000;-51
2022/10/30 05:47:42;;;;;;;74.47;53.13;;;18.90;81.40;;;;;;4943196;28;94575;-50
2022/10/30 05:50:08;;;;;;;75.55;53.25;;;18.90;81.50;;;;;;4950959;28;91893;-50
2022/10/30 05:52:34;;;;;;;76.43;53.47;;;18.90;81.50;;;;;;4947081;28;92392;-53
2022/10/30 05:55:00;;;;;;;75.43;53.63;;;18.90;81.50;;;;;;4946338;28;90156;-47
2022/10/30 05:57:31;;;;;;;75.88;53.15;;;18.90;81.40;;;;;;4956544;28;90033;-49
2022/10/30 05:59:57;;;;;;;73.00;52.67;;;18.90;81.40;;;;;;4947983;28;91913;-52
2022/10/30 06:02:23;;;;;;;76.22;52.92;;;18.90;81.50;;;;;;4943066;28;90176;-52
2022/10/30 06:04:49;;;;;;;75.63;52.70;;;18.90;81.50;;;;;;4947996;28;90970;-49
2022/10/30 06:07:14;;;;;;;74.80;52.97;;;18.90;81.40;;;;;;4944610;28;91916;-52
2022/10/30 06:09:40;;;;;;;73.93;52.92;;;18.80;81.30;;;;;;4950133;28;90190;-52
2022/10/30 06:12:06;;;;;;;74.57;53.13;;;18.80;81.30;;;;;;4946100;28;92897;-52
2022/10/30 06:14:31;;;;;;;75.75;53.30;;;18.90;81.40;;;;;;4944387;28;89826;-49
2022/10/30 06:16:57;;;;;;;74.95;53.53;;;18.80;81.40;;;;;;4954203;28;91509;-54
2022/10/30 06:19:23;;;;;;;75.88;52.72;;;18.80;81.40;;;;;;4945714;28;91410;-50
2022/10/30 06:21:48;;;;;;;74.28;52.85;;;18.80;81.30;;;;;;4953084;28;89662;-51
2022/10/30 06:24:14;;;;;;;75.22;53.15;;;18.80;81.30;;;;;;4940852;28;91922;-52
2022/10/30 06:26:40;;;;;;;74.65;52.97;;;18.80;81.20;;;;;;4948405;28;92768;-53
2022/10/30 06:29:05;;;;;;;76.38;53.05;;;18.80;81.30;;;;;;4946598;28;91138;-52
2022/10/30 06:31:31;;;;;;;75.70;52.70;;;18.80;81.30;;;;;;4951910;28;91338;-49
2022/10/30 06:33:57;;;;;;;73.78;53.20;;;18.80;81.30;;;;;;4920763;28;90188;-52
2022/10/30 06:36:22;;;;;;;75.20;52.92;;;18.80;81.20;;;;;;4943324;28;89913;-51
2022/10/30 06:38:48;;;;;;;74.10;52.80;;;18.80;81.30;;;;;;4946399;28;90894;-53
2022/10/30 06:41:14;;;;;;;74.07;52.95;;;18.80;81.30;;;;;;4948375;28;91723;-53
2022/10/30 06:43:39;;;;;;;74.97;52.97;;;18.80;81.40;;;;;;4951954;28;89928;-50
2022/10/30 06:46:05;;;;;;;75.30;53.22;;;18.80;81.30;;;;;;4944112;28;90834;-51
2022/10/30 06:48:31;;;;;;;75.68;52.78;;;18.80;81.30;;;;;;4947533;28;90354;-52
2022/10/30 06:50:58;;;;;;;74.03;53.13;;;18.80;81.30;;;;;;4943256;28;91081;-50
2022/10/30 06:53:24;;;;;;;76.18;52.90;;;18.80;81.30;;;;;;4950194;28;89802;-50
2022/10/30 06:56:01;;;;;;;74.18;53.15;;;18.80;81.30;;;;;;4946063;28;89753;-49
2022/10/30 06:58:29;;;;;;;78.63;53.20;;;18.80;81.30;;;;;;4948196;28;89501;-50
2022/10/30 07:00:55;;;;;;;74.82;53.10;;;18.80;81.30;;;;;;4942832;28;91314;-50
2022/10/30 07:03:20;;;;;;;75.65;53.05;;;18.80;81.20;;;;;;4950328;28;89486;-52
2022/10/30 07:05:47;;;;;;;75.38;53.13;;;18.80;81.30;;;;;;4942530;28;93392;-53
2022/10/30 07:08:12;;;;;;;74.07;52.92;;;18.80;81.20;;;;;;4939727;28;89968;-49
2022/10/30 07:10:38;;;;;;;73.25;52.60;;;18.70;81.20;;;;;;4943919;28;90152;-50
2022/10/30 07:13:04;;;;;;;75.03;53.03;;;18.70;81.20;;;;;;4942051;28;91305;-52
2022/10/30 07:15:30;;;;;;;74.30;52.70;;;18.80;81.30;;;;;;4949710;28;90327;-49
2022/10/30 07:18:01;;;;;;;75.15;53.00;;;18.80;81.30;;;;;;4956053;28;95489;-48
2022/10/30 07:20:28;;;;;;;;;;;18.70;81.30;;;;;;4950944;28;90027;-50
2022/10/30 07:22:53;;;;;;;73.45;52.97;;;18.70;81.30;;;;;;4945763;28;90107;-54
2022/10/30 07:25:19;;;;;;;74.25;52.50;;;18.80;81.30;;;;;;4940616;28;89689;-53
2022/10/30 07:27:47;;;;;;;74.30;53.15;;;18.80;81.30;;;;;;4943892;28;94265;-52
2022/10/30 07:30:15;;;;;;;73.45;52.95;;;18.80;81.30;;;;;;4947962;28;93520;-49
2022/10/30 07:32:41;;;;;;;74.95;52.60;;;18.80;81.20;;;;;;4939186;28;93151;-49
2022/10/30 07:35:08;;;;;;;77.88;53.05;;;18.80;81.30;;;;;;4952515;28;89988;-50
2022/10/30 07:37:34;;;;;;;74.68;53.15;;;18.80;81.30;;;;;;4943105;28;90703;-47
2022/10/30 07:39:59;;;;;;;75.72;52.75;;;18.80;81.20;;;;;;4941937;28;91289;-49
2022/10/30 07:42:25;;;;;;;74.95;52.58;;;18.80;81.20;;;;;;4949407;28;91069;-49
2022/10/30 07:44:51;;;;;;;74.53;52.72;;;18.80;81.20;;;;;;4939827;28;90203;-51
2022/10/30 07:47:16;;;;;;;73.22;52.88;;;18.80;81.20;;;;;;4942414;28;89070;-49
2022/10/30 07:49:42;;;;;;;73.82;53.10;;;18.80;81.20;;;;;;4952109;28;90158;-52
2022/10/30 07:52:08;;;;;;;74.88;52.85;;;18.80;81.40;;;;;;4940565;28;91581;-51
2022/10/30 07:54:33;;;;;;;74.53;52.45;;;18.80;81.30;;;;;;4939078;28;93152;-49
2022/10/30 07:56:59;;;;;;;74.43;53.05;;;18.80;81.30;;;;;;4946149;28;90156;-53
2022/10/30 07:59:25;;;;;;;75.90;52.85;;;18.80;81.20;;;;;;4944445;28;91228;-52
2022/10/30 08:01:50;;;;;;;73.78;52.47;;;18.80;81.10;;;;;;4939530;28;89520;-48
2022/10/30 08:04:16;;;;;;;75.45;53.25;;;18.80;81.20;;;;;;4938751;28;91915;-51
2022/10/30 08:06:42;;;;;;;74.82;53.13;;;18.80;81.10;;;;;;4950500;28;93640;-49
2022/10/30 08:09:09;;;;;;;73.93;52.78;;;18.80;81.20;;;;;;4947543;28;90660;-51
2022/10/30 08:11:34;;;;;;;75.68;52.63;;;18.80;81.20;;;;;;4948316;28;89755;-51
2022/10/30 08:14:00;;;;;;;74.80;53.08;;;18.80;81.10;;;;;;4955665;28;89871;-53
2022/10/30 08:16:26;;;;;;;73.93;52.92;;;18.80;81.00;;;;;;4954815;28;91616;-47
2022/10/30 08:18:52;;;;;;;73.57;53.03;;;18.90;81.10;;;;;;4952676;28;92084;-48
2022/10/30 08:21:17;;;;;;;75.28;53.00;;;18.90;81.20;;;;;;4948449;28;92117;-49
2022/10/30 08:23:43;;;;;;;76.47;53.40;;;18.90;81.10;;;;;;4941715;28;90871;-48
2022/10/30 08:26:09;;;;;;;77.47;53.17;;;18.90;81.20;;;;;;4944953;28;90136;-51
2022/10/30 08:28:34;;;;;;;75.68;53.38;;;18.90;81.10;;;;;;4945390;28;90590;-51
2022/10/30 08:31:01;;;;;;;73.50;52.70;;;18.90;81.10;;;;;;4943187;28;94616;-49
2022/10/30 08:33:27;;;;;;;78.03;53.35;;;18.90;81.00;;;;;;4952190;28;90878;-48
2022/10/30 08:35:55;;;;;;;75.55;52.47;;;18.90;81.00;;;;;;4949737;28;89151;-50
2022/10/30 08:38:22;;;;;;;74.28;53.20;;;18.90;80.90;;;;;;4949630;28;91016;-49
2022/10/30 08:40:48;;;;;;;75.22;52.88;;;19.00;81.00;;;;;;4940815;28;92941;-53
2022/10/30 08:43:13;;;;;;;73.05;52.70;;;18.90;80.90;;;;;;4951674;28;90755;-49
2022/10/30 08:45:40;;;;;;;73.93;52.85;;;19.00;80.90;;;;;;4942036;28;94340;-51
2022/10/30 08:48:09;;;;;;;74.45;52.97;;;19.00;81.00;;;;;;4940798;28;91094;-49
2022/10/30 08:50:34;;;;;;;73.65;52.65;;;19.00;81.00;;;;;;4950735;28;91880;-51
2022/10/30 08:53:02;;;;;;;75.47;52.85;;;19.00;81.10;;;;;;4954617;28;90504;-50
2022/10/30 08:55:28;;;;;;;74.32;52.53;;;19.00;81.20;;;;;;4950987;28;90469;-51
2022/10/30 08:57:54;;;;;;;75.30;52.92;;;19.00;81.20;;;;;;4947504;28;92054;-51
2022/10/30 09:00:19;;;;;;;75.07;53.45;;;19.00;81.30;;;;;;4946638;28;89945;-51
2022/10/30 09:02:45;;;;;;;74.90;53.05;;;19.00;81.20;;;;;;4955470;28;90259;-50
2022/10/30 09:05:11;;;;;;;75.32;53.15;;;19.10;81.40;;;;;;4942790;28;93682;-48
2022/10/30 09:07:36;;;;;;;76.63;52.65;;;19.10;81.30;;;;;;4944901;28;91057;-50
2022/10/30 09:10:03;;;;;;;75.63;52.92;;;19.10;81.40;;;;;;4959416;28;92050;-52
2022/10/30 09:12:29;;;;;;;75.72;53.05;;;19.10;81.40;;;;;;4952605;28;92868;-51
2022/10/30 09:14:55;;;;;;;75.68;53.08;;;19.10;81.50;;;;;;4942363;28;90084;-52
2022/10/30 09:17:20;;;;;;;74.38;53.08;;;19.10;81.50;;;;;;4945370;28;90959;-52
2022/10/30 09:19:46;;;;;;;77.22;53.22;;;19.10;81.50;;;;;;4946423;28;92653;-51
2022/10/30 09:22:12;;;;;;;74.90;52.88;;;19.20;81.70;;;;;;4940761;28;90010;-53
2022/10/30 09:24:38;;;;;;;74.65;53.28;;;19.20;81.60;;;;;;4943150;28;91998;-51
2022/10/30 09:27:05;;;;;;;74.45;53.38;;;19.20;81.60;;;;;;4944549;28;94453;-49
2022/10/30 09:29:30;;;;;;;80.03;52.85;;;19.20;81.60;;;;;;4948578;28;94976;-49
2022/10/30 09:31:57;;;;;;;75.60;53.10;;;19.20;81.80;;;;;;4944343;28;92165;-52
2022/10/30 09:34:23;;;;;;;74.50;53.17;;;19.20;81.80;;;;;;4950793;28;92627;-49
2022/10/30 09:36:48;;;;;;;75.05;53.42;;;19.20;81.90;;;;;;4940442;28;92279;-51
2022/10/30 09:39:14;;;;;;;74.88;53.05;;;19.20;81.90;;;;;;4946936;28;91940;-51
2022/10/30 09:42:14;;;;;;;77.32;53.10;;;19.30;82.00;;;;;;4949675;28;90063;-51
2022/10/30 09:44:51;;;;;;;75.55;53.33;;;19.30;81.90;;;;;;4953963;28;91517;-53
2022/10/30 09:47:32;;;;;;;78.30;52.92;;;19.30;81.90;;;;;;4946480;28;94412;-54
2022/10/30 09:50:24;;;;;;;77.88;53.28;;;19.30;81.90;;;;;;4944328;28;92255;-53
2022/10/30 09:53:10;;;;;;;74.20;53.13;;;19.30;81.90;;;;;;4945978;28;91676;-52
2022/10/30 09:55:46;;;;;;;80.38;52.88;;;19.30;81.90;;;;;;4942948;28;91766;-54
2022/10/30 09:58:28;;;;;;;75.32;53.30;;;19.40;82.20;;;;;;4932736;28;95725;-52
2022/10/30 10:01:20;;;;;;;77.68;53.63;;;19.40;82.40;;;;;;4934130;28;91582;-53
2022/10/30 10:04:25;;;;;;;77.25;53.00;;;19.40;82.50;;;;;;4941068;28;90485;-53
2022/10/30 10:07:09;;;;;;;76.50;53.15;;;19.30;82.50;;;;;;4948683;28;89890;-51
2022/10/30 10:09:37;;;;;;;77.80;53.53;;;19.40;82.50;;;;;;4942891;28;91123;-53
2022/10/30 10:12:12;;;;;;;76.20;53.63;;;19.40;82.70;;;;;;4930394;28;90392;-52
2022/10/30 10:14:43;;;;;;;77.85;53.70;;;19.40;83.00;;;;;;4953145;28;93116;-53
2022/10/30 10:17:28;;;;;;;79.53;53.72;;;19.40;83.10;;;;;;4944764;28;89111;-53
2022/10/30 10:20:00;;;;;;;77.72;54.05;;;19.40;82.80;;;;;;4942439;28;89971;-49
2022/10/30 10:22:38;;;;;;;77.63;53.60;;;19.40;82.60;;;;;;4946380;28;91439;-49
2022/10/30 10:25:11;;;;;;;79.10;53.85;;;19.40;82.50;;;;;;4943926;28;91294;-49
2022/10/30 10:28:07;;;;;;;76.88;53.78;;;19.40;82.40;;;;;;4936053;28;91009;-53
2022/10/30 10:30:47;;;;;;;76.03;53.58;;;19.40;82.30;;;;;;4938646;28;94202;-52
2022/10/30 10:33:32;;;;;;;77.05;53.92;;;19.40;82.10;;;;;;4943077;28;90359;-51
2022/10/30 10:36:19;;;;;;;78.47;54.03;;;19.40;81.80;;;;;;4944905;28;91567;-49
2022/10/30 10:39:00;;;;;;;76.97;53.75;;;19.40;81.80;;;;;;4939768;28;90733;-53
2022/10/30 10:42:21;;;;;;;77.40;54.10;;;19.40;81.70;;;;;;4934725;28;90743;-52
2022/10/30 10:45:31;;;;;;;76.65;53.92;;;19.40;81.60;;;;;;4917572;28;92264;-54
2022/10/30 10:48:00;;;;;;;77.85;53.85;;;19.40;81.50;;;;;;4933173;28;94871;-51
2022/10/30 10:50:35;;;;;;;78.93;53.92;;;19.40;81.50;;;;;;4951621;28;91084;-51
2022/10/30 10:53:37;;;;;;;76.80;54.08;;;19.50;81.40;;;;;;4937104;28;93980;-50
2022/10/30 10:56:03;;;;;;;78.15;54.17;;;19.50;81.30;;;;;;4933727;28;90412;-52
2022/10/30 10:58:38;;;;;;;76.55;53.85;;;19.50;81.30;;;;;;4940301;28;91950;-49
2022/10/30 11:01:07;;;;;;;77.53;54.05;;;19.50;81.20;;;;;;4947795;28;91261;-51
2022/10/30 11:03:51;;;;;;;79.72;54.33;;;19.50;81.10;;;;;;4948620;28;90704;-51
2022/10/30 11:06:25;;;;;;;76.78;54.40;;;19.50;81.00;;;;;;4941474;28;91315;-52
2022/10/30 11:08:55;;;;;;;77.80;54.20;;;19.50;80.90;;;;;;4937997;28;95472;-53
2022/10/30 11:11:21;;;;;;;80.43;54.28;;;19.50;80.90;;;;;;4936727;28;89189;-53
2022/10/30 11:13:48;;;;;;;82.03;54.63;;;19.50;80.90;;;;;;4950882;28;96023;-50
2022/10/30 11:16:45;;;;;;;80.10;54.63;;;19.50;80.90;;;;;;4946329;28;89924;-51
2022/10/30 11:19:10;;;;;;;81.55;53.95;;;19.50;80.90;;;;;;4943937;28;90693;-51
2022/10/30 11:21:46;;;;;;;77.75;54.58;;;19.50;80.90;;;;;;4950250;28;90292;-50
2022/10/30 11:24:32;;;;;;;76.72;54.08;;;19.50;80.80;;;;;;4943096;28;94570;-50
2022/10/30 11:27:22;;;;;;;78.80;54.40;;;19.60;80.90;;;;;;4941068;28;93302;-53
2022/10/30 11:29:51;;;;;;;79.40;54.15;;;19.60;80.90;;;;;;4945932;28;89935;-49
2022/10/30 11:32:21;;;;;;;80.13;54.00;;;19.60;80.90;;;;;;4934801;28;95481;-53
2022/10/30 11:35:01;;;;;;;77.25;54.40;;;19.50;80.80;;;;;;4948324;28;91181;-50
2022/10/30 11:37:33;;;;;;;78.35;54.35;;;19.60;80.90;;;;;;4944704;28;90385;-51
2022/10/30 11:40:12;;;;;;;78.90;54.75;;;19.60;80.90;;;;;;4936803;28;90491;-52
2022/10/30 11:42:41;;;;;;;79.55;54.42;;;19.60;80.80;;;;;;4936676;28;91659;-54
2022/10/30 11:45:23;;;;;;;82.60;54.53;;;19.60;80.80;;;;;;4948532;28;91809;-51
2022/10/30 11:47:49;;;;;;;81.22;54.83;;;19.50;80.70;;;;;;4943654;28;91545;-51
2022/10/30 11:50:24;;;;;;;80.63;54.97;;;19.60;80.80;;;;;;4946203;28;89614;-54
2022/10/30 11:53:12;;;;;;;80.70;55.05;;;19.60;80.80;;;;;;4931341;28;91153;-54
2022/10/30 11:55:47;;;;;;;83.10;55.38;;;19.60;81.20;;;;;;4929947;28;93824;-53
2022/10/30 11:58:44;;;;;;;80.55;54.80;;;19.70;82.20;;;;;;4932363;28;90434;-53
2022/10/30 12:01:24;;;;;;;82.10;54.53;;;19.80;81.80;;;;;;4928078;28;95131;-54
2022/10/30 12:03:50;;;;;;;81.18;54.90;;;19.80;81.70;;;;;;4934291;28;89232;-52
2022/10/30 12:06:22;;;;;;;88.13;55.55;;;19.80;81.70;;;;;;4931450;28;91149;-47
2022/10/30 12:09:18;;;;;;;85.65;56.20;;;19.90;81.60;;;;;;4936717;28;91389;-51
2022/10/30 12:11:44;;;;;;;89.50;55.97;;;19.90;81.70;;;;;;4937844;28;90856;-50
2022/10/30 12:14:18;;;;;;;88.72;56.65;;;19.90;81.70;;;;;;4940408;28;89754;-50
2022/10/30 12:16:53;;;;;;;88.38;56.13;;;19.90;81.70;;;;;;4947399;28;91890;-50
2022/10/30 12:19:21;;;;;;;92.25;56.65;;;19.90;81.70;;;;;;4938229;28;89967;-54
2022/10/30 12:21:50;;;;;;;90.75;56.78;;;19.90;81.60;;;;;;4941530;28;91507;-52
2022/10/30 12:24:32;;;;;;;90.47;57.38;;;20.00;81.40;;;;;;4944820;28;90737;-49
2022/10/30 12:27:04;;;;;;;89.13;56.78;;;20.00;81.40;;;;;;4942808;28;96778;-55
2022/10/30 12:29:59;;;;;;;85.65;56.65;;;20.00;81.40;;;;;;4946399;28;92156;-52
2022/10/30 12:32:40;;;;;;;91.30;57.03;;;20.00;82.10;;;;;;4941568;28;90011;-52
2022/10/30 12:35:41;;;;;;;91.43;57.05;;;20.00;81.40;;;;;;4949855;28;90749;-52
2022/10/30 12:38:38;;;;;;;89.75;56.90;;;20.00;81.10;;;;;;4942783;28;93651;-49
2022/10/30 12:41:28;;;;;;;91.53;57.13;;;20.10;81.00;;;;;;4939219;28;92320;-52
2022/10/30 12:44:06;;;;;;;90.75;57.13;;;20.10;80.70;;;;;;4944805;28;89947;-56